createdAt,value
2022-08-17T00:00:33.294Z,0
2022-08-17T00:01:14.690Z,0
2022-08-17T00:02:30.075Z,0
2022-08-17T00:03:10.542Z,0
2022-08-17T00:04:15.256Z,0
2022-08-17T00:05:10.229Z,0
2022-08-17T00:06:10.118Z,0
2022-08-17T00:07:10.075Z,0
2022-08-17T00:08:09.911Z,0
2022-08-17T00:09:10.711Z,0
2022-08-17T00:10:10.389Z,0
2022-08-17T00:11:10.052Z,0
2022-08-17T00:12:47.440Z,0
2022-08-17T00:13:10.385Z,0
2022-08-17T00:14:10.274Z,0
2022-08-17T00:15:14.073Z,0
2022-08-17T00:16:10.201Z,0
2022-08-17T00:17:10.241Z,0
2022-08-17T00:19:13.322Z,0
2022-08-17T00:19:13.412Z,0
2022-08-17T00:20:10.736Z,0
2022-08-17T00:21:14.033Z,0
2022-08-17T00:22:39.338Z,0
2022-08-17T00:23:10.671Z,0
2022-08-17T00:24:10.715Z,0
2022-08-17T00:25:10.984Z,0
2022-08-17T00:26:10.503Z,0
2022-08-17T00:27:11.078Z,0
2022-08-17T00:28:10.679Z,0
2022-08-17T00:29:10.707Z,0
2022-08-17T00:30:11.208Z,0
2022-08-17T00:31:10.516Z,0
2022-08-17T00:33:20.614Z,0
2022-08-17T00:33:21.880Z,0
2022-08-17T00:34:10.994Z,0
2022-08-17T00:35:10.863Z,0
2022-08-17T00:36:11.268Z,0
2022-08-17T00:37:10.626Z,0
2022-08-17T00:38:10.848Z,0
2022-08-17T00:39:11.314Z,0
2022-08-17T00:40:11.716Z,0
2022-08-17T00:41:10.738Z,0
2022-08-17T00:42:10.891Z,0
2022-08-17T00:43:11.276Z,0
2022-08-17T00:44:10.912Z,0
2022-08-17T00:45:11.353Z,0
2022-08-17T00:46:10.731Z,0
2022-08-17T00:47:10.818Z,0
2022-08-17T00:48:33.236Z,0
2022-08-17T00:49:10.696Z,0
2022-08-17T00:50:10.983Z,0
2022-08-17T00:51:10.773Z,0
2022-08-17T00:52:15.747Z,0
2022-08-17T00:53:10.713Z,0
2022-08-17T00:54:10.797Z,0
2022-08-17T00:55:11.030Z,0
2022-08-17T00:56:10.365Z,0
2022-08-17T00:57:10.634Z,0
2022-08-17T00:58:10.989Z,0
2022-08-17T00:59:10.928Z,0
2022-08-17T01:00:13.220Z,0
2022-08-17T01:01:11.079Z,0
2022-08-17T01:02:10.411Z,0
2022-08-17T01:03:10.817Z,0
2022-08-17T01:04:11.217Z,0
2022-08-17T01:05:11.404Z,0
2022-08-17T01:06:10.678Z,0
2022-08-17T01:07:10.763Z,0
2022-08-17T01:08:11.572Z,0
2022-08-17T01:09:10.735Z,0
2022-08-17T01:11:02.043Z,0
2022-08-17T01:11:10.868Z,0
2022-08-17T01:12:12.419Z,0
2022-08-17T01:13:10.982Z,0
2022-08-17T01:14:10.968Z,0
2022-08-17T01:15:11.786Z,0
2022-08-17T01:16:11.199Z,0
2022-08-17T01:17:10.496Z,0
2022-08-17T01:18:13.066Z,0
2022-08-17T01:19:10.448Z,0
2022-08-17T01:20:11.506Z,0
2022-08-17T01:21:11.065Z,0
2022-08-17T01:22:10.606Z,0
2022-08-17T01:23:10.676Z,0
2022-08-17T01:24:10.504Z,0
2022-08-17T01:25:10.378Z,0
2022-08-17T01:26:10.279Z,0
2022-08-17T01:27:14.221Z,0
2022-08-17T01:28:10.415Z,0
2022-08-17T01:29:10.379Z,0
2022-08-17T01:31:04.095Z,0
2022-08-17T01:31:12.301Z,0
2022-08-17T01:32:10.403Z,0
2022-08-17T01:33:10.771Z,0
2022-08-17T01:34:11.133Z,0
2022-08-17T01:35:10.582Z,0
2022-08-17T01:36:15.370Z,0
2022-08-17T01:37:10.504Z,0
2022-08-17T01:38:10.454Z,0
2022-08-17T01:39:10.719Z,0
2022-08-17T01:40:10.855Z,0
2022-08-17T01:41:10.712Z,0
2022-08-17T01:42:13.567Z,0
2022-08-17T01:43:10.331Z,0
2022-08-17T01:44:10.417Z,0
2022-08-17T01:45:10.631Z,0
2022-08-17T01:46:10.991Z,0
2022-08-17T01:47:10.103Z,0
2022-08-17T01:48:10.413Z,0
2022-08-17T01:49:10.322Z,0
2022-08-17T01:50:10.151Z,0
2022-08-17T01:51:10.253Z,0
2022-08-17T01:52:10.319Z,0
2022-08-17T01:53:10.330Z,0
2022-08-17T01:54:10.288Z,0
2022-08-17T01:55:10.377Z,0
2022-08-17T01:56:10.956Z,0
2022-08-17T01:57:10.710Z,0
2022-08-17T01:58:10.253Z,0
2022-08-17T01:59:10.034Z,0
2022-08-17T02:00:11.800Z,0
2022-08-17T02:01:10.159Z,0
2022-08-17T02:02:30.934Z,0
2022-08-17T02:03:10.470Z,0
2022-08-17T02:04:10.503Z,0
2022-08-17T02:05:10.628Z,0
2022-08-17T02:06:31.587Z,0
2022-08-17T02:07:10.541Z,0
2022-08-17T02:08:19.894Z,0
2022-08-17T02:09:20.013Z,0
2022-08-17T02:10:23.740Z,0
2022-08-17T02:11:15.452Z,0
2022-08-17T02:12:51.095Z,0
2022-08-17T02:13:10.651Z,0
2022-08-17T02:14:10.551Z,0
2022-08-17T02:15:10.564Z,0
2022-08-17T02:16:10.747Z,0
2022-08-17T02:17:10.943Z,0
2022-08-17T02:18:11.010Z,0
2022-08-17T02:19:10.567Z,0
2022-08-17T02:20:10.930Z,0
2022-08-17T02:21:10.852Z,0
2022-08-17T02:22:11.258Z,0
2022-08-17T02:23:11.390Z,0
2022-08-17T02:24:10.944Z,0
2022-08-17T02:25:11.259Z,0
2022-08-17T02:26:10.488Z,0
2022-08-17T02:27:11.019Z,0
2022-08-17T02:28:10.647Z,0
2022-08-17T02:29:10.823Z,0
2022-08-17T02:31:05.462Z,0
2022-08-17T02:31:13.186Z,0
2022-08-17T02:32:10.680Z,0
2022-08-17T02:33:13.346Z,0
2022-08-17T02:34:10.812Z,0
2022-08-17T02:35:11.142Z,0
2022-08-17T02:36:10.232Z,0
2022-08-17T02:37:10.673Z,0
2022-08-17T02:38:10.707Z,0
2022-08-17T02:39:11.224Z,0
2022-08-17T02:40:10.609Z,0
2022-08-17T02:41:10.911Z,0
2022-08-17T02:42:10.790Z,0
2022-08-17T02:43:10.895Z,0
2022-08-17T02:44:11.062Z,0
2022-08-17T02:45:10.506Z,0
2022-08-17T02:46:10.675Z,0
2022-08-17T02:47:10.765Z,0
2022-08-17T02:48:10.922Z,0
2022-08-17T02:49:10.770Z,0
2022-08-17T02:50:11.040Z,0
2022-08-17T02:51:10.228Z,0
2022-08-17T02:52:10.679Z,0
2022-08-17T02:53:11.554Z,0
2022-08-17T02:54:45.470Z,0
2022-08-17T02:55:10.651Z,0
2022-08-17T02:56:10.730Z,0
2022-08-17T02:57:10.698Z,0
2022-08-17T02:58:11.199Z,0
2022-08-17T02:59:10.519Z,0
2022-08-17T03:00:12.665Z,0
2022-08-17T03:01:11.028Z,0
2022-08-17T03:02:10.481Z,0
2022-08-17T03:03:10.515Z,0
2022-08-17T03:04:10.908Z,0
2022-08-17T03:05:11.219Z,0
2022-08-17T03:06:10.533Z,0
2022-08-17T03:07:11.004Z,0
2022-08-17T03:08:15.285Z,0
2022-08-17T03:09:10.580Z,0
2022-08-17T03:10:11.091Z,0
2022-08-17T03:11:10.575Z,0
2022-08-17T03:12:10.888Z,0
2022-08-17T03:13:10.630Z,0
2022-08-17T03:14:10.889Z,0
2022-08-17T03:15:11.125Z,0
2022-08-17T03:16:10.538Z,0
2022-08-17T03:17:10.705Z,0
2022-08-17T03:18:19.274Z,0
2022-08-17T03:19:10.905Z,0
2022-08-17T03:20:11.036Z,0
2022-08-17T03:21:10.544Z,0
2022-08-17T03:22:40.861Z,0
2022-08-17T03:23:13.304Z,0
2022-08-17T03:24:13.038Z,0
2022-08-17T03:25:14.478Z,0
2022-08-17T03:27:11.302Z,0
2022-08-17T03:28:10.550Z,0
2022-08-17T03:29:10.754Z,0
2022-08-17T03:30:10.926Z,0
2022-08-17T03:31:11.374Z,0
2022-08-17T03:32:10.601Z,0
2022-08-17T03:33:10.749Z,0
2022-08-17T03:34:10.736Z,0
2022-08-17T03:35:10.791Z,0
2022-08-17T03:36:11.156Z,0
2022-08-17T03:37:10.523Z,0
2022-08-17T03:38:10.624Z,0
2022-08-17T03:39:10.417Z,0
2022-08-17T03:40:10.985Z,0
2022-08-17T03:41:10.489Z,0
2022-08-17T03:42:31.335Z,0
2022-08-17T03:43:10.864Z,0
2022-08-17T03:44:10.886Z,0
2022-08-17T03:45:12.002Z,0
2022-08-17T03:46:35.523Z,0
2022-08-17T03:47:11.136Z,0
2022-08-17T03:48:10.549Z,0
2022-08-17T03:49:10.383Z,0
2022-08-17T03:50:14.274Z,0
2022-08-17T03:51:17.608Z,0
2022-08-17T03:52:11.151Z,0
2022-08-17T03:53:10.296Z,0
2022-08-17T03:54:11.374Z,0
2022-08-17T03:55:10.661Z,0
2022-08-17T03:56:10.823Z,0
2022-08-17T03:57:10.805Z,0
2022-08-17T03:58:10.635Z,0
2022-08-17T03:59:24.346Z,0
2022-08-17T04:00:11.978Z,0
2022-08-17T04:01:11.112Z,0
2022-08-17T04:02:10.313Z,0
2022-08-17T04:03:12.619Z,0
2022-08-17T04:04:10.487Z,0
2022-08-17T04:05:10.983Z,0
2022-08-17T04:06:10.304Z,0
2022-08-17T04:07:10.452Z,0
2022-08-17T04:08:10.609Z,0
2022-08-17T04:09:11.084Z,0
2022-08-17T04:10:10.562Z,0
2022-08-17T04:11:10.501Z,0
2022-08-17T04:12:11.048Z,0
2022-08-17T04:13:10.778Z,0
2022-08-17T04:14:10.939Z,0
2022-08-17T04:15:11.551Z,0
2022-08-17T04:16:11.082Z,0
2022-08-17T04:17:10.660Z,0
2022-08-17T04:18:14.542Z,0
2022-08-17T04:19:10.638Z,0
2022-08-17T04:20:10.966Z,0
2022-08-17T04:21:11.021Z,0
2022-08-17T04:22:10.867Z,0
2022-08-17T04:23:10.941Z,0
2022-08-17T04:24:11.362Z,0
2022-08-17T04:25:11.020Z,0
2022-08-17T04:26:10.661Z,0
2022-08-17T04:27:11.145Z,0
2022-08-17T04:29:10.575Z,0
2022-08-17T04:30:11.328Z,0
2022-08-17T04:31:11.266Z,0
2022-08-17T04:32:10.673Z,0
2022-08-17T04:33:11.092Z,0
2022-08-17T04:34:10.741Z,0
2022-08-17T04:35:11.490Z,0
2022-08-17T04:36:10.535Z,0
2022-08-17T04:37:10.613Z,0
2022-08-17T04:38:11.526Z,0
2022-08-17T04:39:10.792Z,0
2022-08-17T04:40:11.358Z,0
2022-08-17T04:41:11.133Z,0
2022-08-17T04:42:10.540Z,0
2022-08-17T04:43:11.306Z,0
2022-08-17T04:44:11.148Z,0
2022-08-17T04:45:11.518Z,0
2022-08-17T04:46:11.043Z,0
2022-08-17T04:47:14.209Z,0
2022-08-17T04:48:10.894Z,0
2022-08-17T04:49:11.656Z,0
2022-08-17T04:50:11.016Z,0
2022-08-17T04:51:10.673Z,0
2022-08-17T04:52:43.737Z,0
2022-08-17T04:53:11.180Z,0
2022-08-17T04:54:10.573Z,0
2022-08-17T04:55:10.989Z,0
2022-08-17T04:56:16.796Z,0
2022-08-17T04:57:41.794Z,0
2022-08-17T04:58:10.898Z,0
2022-08-17T04:59:11.436Z,0
2022-08-17T05:00:11.532Z,0
2022-08-17T05:01:11.221Z,0
2022-08-17T05:02:10.557Z,0
2022-08-17T05:03:11.100Z,0
2022-08-17T05:04:37.826Z,0
2022-08-17T05:05:11.140Z,0
2022-08-17T05:06:10.916Z,0
2022-08-17T05:07:11.257Z,0
2022-08-17T05:08:10.909Z,0
2022-08-17T05:09:11.216Z,0
2022-08-17T05:10:11.058Z,0
2022-08-17T05:11:10.634Z,0
2022-08-17T05:12:10.868Z,0
2022-08-17T05:13:13.264Z,0
2022-08-17T05:14:10.438Z,0
2022-08-17T05:15:11.092Z,0
2022-08-17T05:16:10.604Z,0
2022-08-17T05:17:15.003Z,0
2022-08-17T05:18:10.561Z,0
2022-08-17T05:19:11.022Z,0
2022-08-17T05:20:10.770Z,0
2022-08-17T05:21:11.063Z,0
2022-08-17T05:22:10.658Z,0
2022-08-17T05:23:10.767Z,0
2022-08-17T05:24:53.531Z,0
2022-08-17T05:25:10.352Z,0
2022-08-17T05:26:26.190Z,0
2022-08-17T05:27:10.707Z,0
2022-08-17T05:28:11.894Z,0
2022-08-17T05:29:11.026Z,991.5
2022-08-17T05:30:10.900Z,991.5
2022-08-17T05:31:11.192Z,991.6
2022-08-17T05:32:51.410Z,991.6
2022-08-17T05:33:11.076Z,991.6
2022-08-17T05:34:10.835Z,991.6
2022-08-17T05:35:11.368Z,991.6
2022-08-17T05:36:10.809Z,991.6
2022-08-17T05:37:10.683Z,991.6
2022-08-17T05:38:10.695Z,991.6
2022-08-17T05:39:16.507Z,991.6
2022-08-17T05:40:10.772Z,991.7
2022-08-17T05:41:10.963Z,991.6
2022-08-17T05:42:11.352Z,991.6
2022-08-17T05:43:10.599Z,991.6
2022-08-17T05:44:10.752Z,991.6
2022-08-17T05:45:10.981Z,0
2022-08-17T05:46:10.233Z,991.7
2022-08-17T05:47:13.757Z,991.8
2022-08-17T05:48:10.757Z,991.8
2022-08-17T05:49:11.121Z,0
2022-08-17T05:50:13.643Z,991.9
2022-08-17T05:51:10.618Z,991.9
2022-08-17T05:52:10.832Z,991.9
2022-08-17T05:53:11.094Z,991.9
2022-08-17T05:54:10.620Z,992.0
2022-08-17T05:55:11.557Z,992.1
2022-08-17T05:56:32.975Z,992.1
2022-08-17T05:57:11.101Z,992.1
2022-08-17T05:58:10.565Z,0
2022-08-17T05:59:10.698Z,0
2022-08-17T06:00:14.113Z,0
2022-08-17T06:01:10.909Z,0
2022-08-17T06:02:11.358Z,0
2022-08-17T06:03:11.264Z,0
2022-08-17T06:04:10.586Z,0
2022-08-17T06:05:11.728Z,0
2022-08-17T06:06:10.843Z,0
2022-08-17T06:07:11.555Z,0
2022-08-17T06:08:11.204Z,0
2022-08-17T06:09:11.233Z,0
2022-08-17T06:10:10.772Z,0
2022-08-17T06:11:11.854Z,0
2022-08-17T06:12:19.977Z,0
2022-08-17T06:13:10.651Z,0
2022-08-17T06:14:10.855Z,0
2022-08-17T06:15:11.838Z,0
2022-08-17T06:16:37.787Z,0
2022-08-17T06:17:11.519Z,0
2022-08-17T06:18:13.731Z,0
2022-08-17T06:19:11.520Z,0
2022-08-17T06:20:10.964Z,0
2022-08-17T06:21:11.604Z,0
2022-08-17T06:22:11.066Z,0
2022-08-17T06:23:10.179Z,0
2022-08-17T06:24:10.410Z,0
2022-08-17T06:25:14.595Z,0
2022-08-17T06:26:10.992Z,0
2022-08-17T06:27:10.652Z,0
2022-08-17T06:28:13.953Z,992.1
2022-08-17T06:29:22.412Z,992.1
2022-08-17T06:30:11.567Z,992.1
2022-08-17T06:31:11.209Z,992.2
2022-08-17T06:32:12.618Z,992.2
2022-08-17T06:33:11.353Z,992.2
2022-08-17T06:34:10.951Z,0
2022-08-17T06:35:12.002Z,0
2022-08-17T06:36:15.915Z,0
2022-08-17T06:37:11.291Z,0
2022-08-17T06:38:17.317Z,0
2022-08-17T06:39:11.037Z,0
2022-08-17T06:40:10.801Z,0
2022-08-17T06:41:11.654Z,0
2022-08-17T06:42:54.943Z,0
2022-08-17T06:43:12.209Z,0
2022-08-17T06:44:11.362Z,0
2022-08-17T06:45:11.501Z,0
2022-08-17T06:46:11.135Z,0
2022-08-17T06:47:10.892Z,0
2022-08-17T06:48:11.560Z,0
2022-08-17T06:49:11.387Z,0
2022-08-17T06:50:11.017Z,0
2022-08-17T06:51:10.508Z,0
2022-08-17T06:52:10.803Z,0
2022-08-17T06:53:10.581Z,0
2022-08-17T06:54:11.021Z,0
2022-08-17T06:55:18.791Z,0
2022-08-17T06:56:10.694Z,0
2022-08-17T06:57:11.270Z,0
2022-08-17T06:59:10.588Z,0
2022-08-17T07:00:12.953Z,0
2022-08-17T07:01:11.383Z,0
2022-08-17T07:02:11.835Z,0
2022-08-17T07:03:11.857Z,0
2022-08-17T07:04:15.761Z,0
2022-08-17T07:05:11.886Z,0
2022-08-17T07:06:10.947Z,0
2022-08-17T07:07:11.095Z,0
2022-08-17T07:08:10.626Z,0
2022-08-17T07:09:11.195Z,0
2022-08-17T07:10:10.611Z,0
2022-08-17T07:11:11.190Z,0
2022-08-17T07:12:10.839Z,0
2022-08-17T07:13:10.942Z,0
2022-08-17T07:14:16.551Z,0
2022-08-17T07:15:11.120Z,0
2022-08-17T07:16:10.743Z,0
2022-08-17T07:17:11.238Z,0
2022-08-17T07:18:10.828Z,0
2022-08-17T07:19:14.759Z,0
2022-08-17T07:20:11.021Z,0
2022-08-17T07:21:14.189Z,0
2022-08-17T07:22:10.355Z,0
2022-08-17T07:23:10.840Z,0
2022-08-17T07:24:11.947Z,0
2022-08-17T07:25:10.939Z,0
2022-08-17T07:26:10.440Z,0
2022-08-17T07:27:10.751Z,0
2022-08-17T07:28:11.662Z,0
2022-08-17T07:29:11.282Z,0
2022-08-17T07:30:14.558Z,0
2022-08-17T07:31:10.944Z,0
2022-08-17T07:32:11.636Z,0
2022-08-17T07:33:16.268Z,0
2022-08-17T07:34:10.979Z,0
2022-08-17T07:35:15.410Z,0
2022-08-17T07:36:11.231Z,0
2022-08-17T07:37:10.652Z,0
2022-08-17T07:38:29.322Z,0
2022-08-17T07:39:10.776Z,0
2022-08-17T07:41:10.879Z,0
2022-08-17T07:42:11.617Z,0
2022-08-17T07:43:19.925Z,0
2022-08-17T07:44:10.956Z,0
2022-08-17T07:45:12.037Z,0
2022-08-17T07:46:10.891Z,0
2022-08-17T07:47:11.597Z,0
2022-08-17T07:48:11.198Z,0
2022-08-17T07:49:11.575Z,0
2022-08-17T07:50:11.041Z,0
2022-08-17T07:51:10.850Z,0
2022-08-17T07:52:53.808Z,0
2022-08-17T07:53:12.000Z,0
2022-08-17T07:54:18.383Z,0
2022-08-17T07:55:10.709Z,0
2022-08-17T07:56:11.116Z,0
2022-08-17T07:57:10.611Z,0
2022-08-17T07:58:11.470Z,0
2022-08-17T07:59:11.667Z,0
2022-08-17T08:01:10.904Z,0
2022-08-17T08:02:14.114Z,0
2022-08-17T08:03:11.163Z,0
2022-08-17T08:04:18.905Z,0
2022-08-17T08:05:13.755Z,0
2022-08-17T08:06:11.423Z,0
2022-08-17T08:07:11.347Z,0
2022-08-17T08:08:11.228Z,0
2022-08-17T08:09:10.769Z,0
2022-08-17T08:10:11.026Z,0
2022-08-17T08:11:10.527Z,0
2022-08-17T08:13:15.650Z,0
2022-08-17T08:14:11.280Z,0
2022-08-17T08:15:11.237Z,0
2022-08-17T08:16:10.966Z,0
2022-08-17T08:17:13.298Z,0
2022-08-17T08:18:10.976Z,0
2022-08-17T08:19:11.741Z,0
2022-08-17T08:20:56.416Z,0
2022-08-17T08:21:11.195Z,0
2022-08-17T08:22:11.218Z,0
2022-08-17T08:23:10.971Z,0
2022-08-17T08:24:11.951Z,0
2022-08-17T08:25:11.546Z,0
2022-08-17T08:26:15.221Z,0
2022-08-17T08:27:11.047Z,0
2022-08-17T08:28:10.684Z,0
2022-08-17T08:29:11.630Z,0
2022-08-17T08:30:12.385Z,0
2022-08-17T08:31:10.855Z,0
2022-08-17T08:32:12.174Z,0
2022-08-17T08:33:10.824Z,0
2022-08-17T08:35:02.454Z,0
2022-08-17T08:35:11.299Z,0
2022-08-17T08:36:11.006Z,0
2022-08-17T08:37:32.881Z,0
2022-08-17T08:38:11.510Z,0
2022-08-17T08:39:11.205Z,0
2022-08-17T08:40:11.217Z,0
2022-08-17T08:41:10.911Z,0
2022-08-17T08:42:11.062Z,0
2022-08-17T08:43:10.748Z,0
2022-08-17T08:44:11.350Z,0
2022-08-17T08:45:11.731Z,0
2022-08-17T08:46:11.435Z,0
2022-08-17T08:47:11.549Z,0
2022-08-17T08:48:58.661Z,0
2022-08-17T08:49:16.110Z,0
2022-08-17T08:50:37.006Z,0
2022-08-17T08:51:14.435Z,0
2022-08-17T08:52:11.348Z,0
2022-08-17T08:53:10.876Z,0
2022-08-17T08:54:11.144Z,0
2022-08-17T08:55:11.274Z,0
2022-08-17T08:56:11.339Z,0
2022-08-17T08:57:34.830Z,0
2022-08-17T08:58:41.439Z,0
2022-08-17T08:59:10.562Z,0
2022-08-17T09:00:13.001Z,0
2022-08-17T09:01:16.655Z,0
2022-08-17T09:02:11.146Z,0
2022-08-17T09:03:10.686Z,0
2022-08-17T09:05:19.494Z,0
2022-08-17T09:06:43.159Z,0
2022-08-17T09:07:10.524Z,0
2022-08-17T09:08:11.160Z,0
2022-08-17T09:09:11.089Z,0
2022-08-17T09:10:10.844Z,0
2022-08-17T09:11:11.207Z,0
2022-08-17T09:12:10.815Z,0
2022-08-17T09:13:14.096Z,0
2022-08-17T09:14:28.810Z,0
2022-08-17T09:15:16.342Z,0
2022-08-17T09:16:10.959Z,0
2022-08-17T09:17:11.877Z,0
2022-08-17T09:19:09.177Z,0
2022-08-17T09:19:12.808Z,0
2022-08-17T09:20:11.418Z,0
2022-08-17T09:21:10.585Z,0
2022-08-17T09:22:10.808Z,0
2022-08-17T09:23:11.043Z,0
2022-08-17T09:24:10.815Z,0
2022-08-17T09:25:11.241Z,0
2022-08-17T09:26:10.658Z,0
2022-08-17T09:27:10.937Z,0
2022-08-17T09:28:11.321Z,0
2022-08-17T09:29:10.781Z,0
2022-08-17T09:30:11.674Z,0
2022-08-17T09:31:11.376Z,0
2022-08-17T09:32:10.824Z,0
2022-08-17T09:33:10.939Z,0
2022-08-17T09:34:11.245Z,0
2022-08-17T09:35:10.840Z,0
2022-08-17T09:36:11.643Z,0
2022-08-17T09:37:11.143Z,0
2022-08-17T09:38:10.918Z,0
2022-08-17T09:39:11.230Z,0
2022-08-17T09:40:11.130Z,0
2022-08-17T09:41:10.899Z,0
2022-08-17T09:42:11.064Z,0
2022-08-17T09:43:10.200Z,0
2022-08-17T09:44:26.791Z,0
2022-08-17T09:45:11.387Z,0
2022-08-17T09:46:10.770Z,0
2022-08-17T09:47:11.513Z,0
2022-08-17T09:48:11.346Z,0
2022-08-17T09:49:11.312Z,0
2022-08-17T09:50:11.340Z,0
2022-08-17T09:51:10.837Z,0
2022-08-17T09:52:11.564Z,0
2022-08-17T09:53:11.044Z,0
2022-08-17T09:54:41.854Z,0
2022-08-17T09:55:10.790Z,0
2022-08-17T09:56:10.646Z,0
2022-08-17T09:57:33.515Z,0
2022-08-17T09:58:10.943Z,0
2022-08-17T09:59:12.351Z,0
2022-08-17T10:00:12.460Z,0
2022-08-17T10:01:10.753Z,0
2022-08-17T10:02:17.169Z,0
2022-08-17T10:03:10.971Z,0
2022-08-17T10:04:11.423Z,0
2022-08-17T10:05:11.208Z,0
2022-08-17T10:06:10.639Z,0
2022-08-17T10:07:11.068Z,0
2022-08-17T10:08:10.657Z,0
2022-08-17T10:09:11.560Z,0
2022-08-17T10:10:17.693Z,0
2022-08-17T10:11:11.378Z,0
2022-08-17T10:12:13.081Z,0
2022-08-17T10:13:13.396Z,0
2022-08-17T10:14:43.958Z,0
2022-08-17T10:15:13.408Z,0
2022-08-17T10:16:10.974Z,0
2022-08-17T10:17:11.587Z,0
2022-08-17T10:18:11.184Z,0
2022-08-17T10:19:10.770Z,0
2022-08-17T10:20:11.360Z,0
2022-08-17T10:21:11.371Z,0
2022-08-17T10:22:38.998Z,0
2022-08-17T10:23:11.383Z,0
2022-08-17T10:24:10.754Z,0
2022-08-17T10:25:42.878Z,0
2022-08-17T10:26:11.295Z,0
2022-08-17T10:27:11.347Z,0
2022-08-17T10:28:20.109Z,0
2022-08-17T10:29:11.051Z,0
2022-08-17T10:30:10.854Z,0
2022-08-17T10:31:35.723Z,0
2022-08-17T10:32:10.808Z,0
2022-08-17T10:33:11.189Z,0
2022-08-17T10:34:11.018Z,0
2022-08-17T10:35:10.899Z,0
2022-08-17T10:36:14.554Z,0
2022-08-17T10:37:11.498Z,0
2022-08-17T10:38:10.992Z,0
2022-08-17T10:39:10.891Z,0
2022-08-17T10:40:11.949Z,993.8
2022-08-17T10:41:10.911Z,0
2022-08-17T10:42:11.241Z,0
2022-08-17T10:43:12.578Z,0
2022-08-17T10:44:44.531Z,0
2022-08-17T10:45:11.147Z,0
2022-08-17T10:46:34.382Z,0
2022-08-17T10:47:11.268Z,0
2022-08-17T10:48:11.886Z,0
2022-08-17T10:49:11.170Z,0
2022-08-17T10:50:11.275Z,0
2022-08-17T10:51:10.894Z,0
2022-08-17T10:52:10.923Z,0
2022-08-17T10:53:14.517Z,0
2022-08-17T10:54:11.293Z,993.9
2022-08-17T10:55:11.038Z,993.9
2022-08-17T10:56:10.341Z,993.9
2022-08-17T10:57:11.388Z,993.9
2022-08-17T10:58:10.777Z,993.9
2022-08-17T10:59:11.305Z,993.9
2022-08-17T11:00:11.994Z,993.9
2022-08-17T11:01:11.229Z,994.0
2022-08-17T11:02:11.068Z,994.0
2022-08-17T11:03:11.008Z,994.0
2022-08-17T11:04:10.859Z,994
2022-08-17T11:05:11.342Z,994.0
2022-08-17T11:06:11.322Z,993.9
2022-08-17T11:07:10.978Z,993.9
2022-08-17T11:08:11.812Z,993.9
2022-08-17T11:09:11.467Z,993.9
2022-08-17T11:10:11.449Z,994.0
2022-08-17T11:11:11.115Z,994.0
2022-08-17T11:12:10.938Z,993.9
2022-08-17T11:13:11.752Z,993.9
2022-08-17T11:14:11.489Z,993.9
2022-08-17T11:15:11.484Z,994.0
2022-08-17T11:16:15.989Z,994.0
2022-08-17T11:17:11.286Z,994.0
2022-08-17T11:18:11.629Z,994.0
2022-08-17T11:19:11.354Z,994.0
2022-08-17T11:20:11.465Z,0
2022-08-17T11:21:11.109Z,0
2022-08-17T11:22:10.823Z,0
2022-08-17T11:23:11.311Z,0
2022-08-17T11:24:11.180Z,0
2022-08-17T11:25:10.790Z,0
2022-08-17T11:26:11.376Z,0
2022-08-17T11:27:15.356Z,0
2022-08-17T11:28:11.433Z,0
2022-08-17T11:29:11.256Z,0
2022-08-17T11:30:12.718Z,0
2022-08-17T11:31:11.788Z,0
2022-08-17T11:32:14.955Z,0
2022-08-17T11:33:11.128Z,0
2022-08-17T11:34:11.269Z,0
2022-08-17T11:35:10.826Z,0
2022-08-17T11:36:25.059Z,0
2022-08-17T11:37:11.129Z,0
2022-08-17T11:38:18.824Z,0
2022-08-17T11:39:15.229Z,0
2022-08-17T11:40:24.809Z,0
2022-08-17T11:41:10.895Z,0
2022-08-17T11:42:11.878Z,0
2022-08-17T11:43:11.642Z,0
2022-08-17T11:44:11.355Z,0
2022-08-17T11:45:15.069Z,0
2022-08-17T11:46:11.208Z,0
2022-08-17T11:47:10.996Z,0
2022-08-17T11:48:31.706Z,0
2022-08-17T11:49:11.620Z,0
2022-08-17T11:50:11.472Z,0
2022-08-17T11:51:11.498Z,0
2022-08-17T11:52:12.127Z,0
2022-08-17T11:53:10.923Z,0
2022-08-17T11:54:36.005Z,0
2022-08-17T11:55:43.002Z,0
2022-08-17T11:56:11.848Z,0
2022-08-17T11:57:11.220Z,0
2022-08-17T11:58:10.779Z,0
2022-08-17T11:59:11.010Z,0
2022-08-17T12:00:11.740Z,0
2022-08-17T12:01:13.528Z,0
2022-08-17T12:02:10.834Z,0
2022-08-17T12:03:11.745Z,0
2022-08-17T12:04:11.135Z,0
2022-08-17T12:05:15.993Z,0
2022-08-17T12:06:34.452Z,0
2022-08-17T12:07:10.926Z,0
2022-08-17T12:08:11.973Z,0
2022-08-17T12:09:11.601Z,0
2022-08-17T12:10:11.406Z,0
2022-08-17T12:11:10.872Z,0
2022-08-17T12:12:17.581Z,0
2022-08-17T12:13:11.002Z,0
2022-08-17T12:14:16.984Z,0
2022-08-17T12:15:14.935Z,0
2022-08-17T12:16:11.387Z,0
2022-08-17T12:17:12.491Z,0
2022-08-17T12:18:11.317Z,0
2022-08-17T12:19:10.876Z,0
2022-08-17T12:21:11.141Z,0
2022-08-17T12:22:10.862Z,0
2022-08-17T12:23:12.098Z,0
2022-08-17T12:24:10.964Z,0
2022-08-17T12:25:11.734Z,0
2022-08-17T12:26:11.503Z,0
2022-08-17T12:27:10.806Z,0
2022-08-17T12:28:11.777Z,0
2022-08-17T12:29:38.454Z,0
2022-08-17T12:30:11.307Z,0
2022-08-17T12:31:10.811Z,0
2022-08-17T12:32:11.378Z,0
2022-08-17T12:33:10.705Z,0
2022-08-17T12:34:11.363Z,0
2022-08-17T12:35:10.866Z,0
2022-08-17T12:36:11.474Z,0
2022-08-17T12:37:11.101Z,0
2022-08-17T12:38:36.346Z,0
2022-08-17T12:39:21.420Z,0
2022-08-17T12:40:11.602Z,0
2022-08-17T12:41:11.136Z,0
2022-08-17T12:42:11.066Z,0
2022-08-17T12:43:11.326Z,0
2022-08-17T12:44:11.221Z,0
2022-08-17T12:45:11.196Z,0
2022-08-17T12:46:18.774Z,0
2022-08-17T12:47:11.589Z,0
2022-08-17T12:48:10.813Z,0
2022-08-17T12:49:11.328Z,0
2022-08-17T12:50:29.221Z,0
2022-08-17T12:51:11.333Z,0
2022-08-17T12:52:11.541Z,0
2022-08-17T12:53:11.095Z,0
2022-08-17T12:54:10.757Z,0
2022-08-17T12:55:11.347Z,0
2022-08-17T12:56:11.258Z,0
2022-08-17T12:57:10.877Z,0
2022-08-17T12:58:17.806Z,0
2022-08-17T12:59:11.951Z,0
2022-08-17T13:00:12.547Z,0
2022-08-17T13:01:11.420Z,0
2022-08-17T13:02:11.597Z,0
2022-08-17T13:03:12.765Z,0
2022-08-17T13:04:11.537Z,0
2022-08-17T13:05:11.443Z,0
2022-08-17T13:06:11.074Z,0
2022-08-17T13:07:10.650Z,0
2022-08-17T13:08:11.408Z,0
2022-08-17T13:09:11.196Z,0
2022-08-17T13:10:10.913Z,0
2022-08-17T13:11:11.549Z,0
2022-08-17T13:12:11.818Z,0
2022-08-17T13:13:11.660Z,0
2022-08-17T13:14:12.049Z,0
2022-08-17T13:15:11.627Z,0
2022-08-17T13:16:11.562Z,0
2022-08-17T13:17:17.298Z,0
2022-08-17T13:18:11.165Z,0
2022-08-17T13:19:11.621Z,0
2022-08-17T13:20:11.883Z,0
2022-08-17T13:21:12.084Z,0
2022-08-17T13:22:11.835Z,0
2022-08-17T13:23:16.260Z,0
2022-08-17T13:24:11.837Z,0
2022-08-17T13:25:12.617Z,0
2022-08-17T13:26:11.806Z,0
2022-08-17T13:27:12.557Z,0
2022-08-17T13:28:11.740Z,0
2022-08-17T13:29:12.088Z,0
2022-08-17T13:30:11.830Z,0
2022-08-17T13:31:12.326Z,0
2022-08-17T13:32:19.947Z,0
2022-08-17T13:33:15.091Z,0
2022-08-17T13:34:12.916Z,0
2022-08-17T13:35:29.601Z,0
2022-08-17T13:36:19.353Z,0
2022-08-17T13:37:14.597Z,0
2022-08-17T13:38:11.841Z,0
2022-08-17T13:39:12.009Z,0
2022-08-17T13:40:12.660Z,0
2022-08-17T13:41:12.602Z,0
2022-08-17T13:42:20.447Z,0
2022-08-17T13:43:11.542Z,0
2022-08-17T13:44:12.152Z,0
2022-08-17T13:45:39.566Z,0
2022-08-17T13:46:12.507Z,0
2022-08-17T13:47:11.671Z,0
2022-08-17T13:48:13.670Z,0
2022-08-17T13:49:11.232Z,0
2022-08-17T13:50:11.608Z,0
2022-08-17T13:51:11.544Z,0
2022-08-17T13:52:12.290Z,0
2022-08-17T13:53:12.307Z,0
2022-08-17T13:54:11.602Z,0
2022-08-17T13:55:12.055Z,0
2022-08-17T13:56:42.989Z,0
2022-08-17T13:57:11.796Z,0
2022-08-17T13:58:12.489Z,0
2022-08-17T13:59:11.917Z,0
2022-08-17T14:00:13.524Z,0
2022-08-17T14:01:16.761Z,0
2022-08-17T14:02:12.410Z,0
2022-08-17T14:03:12.189Z,0
2022-08-17T14:04:11.093Z,0
2022-08-17T14:05:14.939Z,0
2022-08-17T14:06:11.801Z,0
2022-08-17T14:07:11.741Z,0
2022-08-17T14:08:13.091Z,0
2022-08-17T14:09:12.293Z,0
2022-08-17T14:10:11.936Z,0
2022-08-17T14:11:12.612Z,0
2022-08-17T14:12:11.730Z,0
2022-08-17T14:13:12.532Z,0
2022-08-17T14:14:11.575Z,0
2022-08-17T14:15:11.193Z,0
2022-08-17T14:16:11.274Z,0
2022-08-17T14:17:11.742Z,0
2022-08-17T14:18:11.379Z,0
2022-08-17T14:19:11.123Z,0
2022-08-17T14:20:11.361Z,0
2022-08-17T14:21:11.746Z,0
2022-08-17T14:22:11.899Z,0
2022-08-17T14:23:11.790Z,0
2022-08-17T14:24:11.662Z,0
2022-08-17T14:25:14.199Z,0
2022-08-17T14:26:11.392Z,0
2022-08-17T14:27:11.521Z,0
2022-08-17T14:28:11.665Z,0
2022-08-17T14:29:19.086Z,0
2022-08-17T14:30:11.762Z,0
2022-08-17T14:31:12.188Z,0
2022-08-17T14:32:11.812Z,0
2022-08-17T14:33:12.158Z,0
2022-08-17T14:34:11.082Z,0
2022-08-17T14:35:11.215Z,0
2022-08-17T14:36:11.539Z,0
2022-08-17T14:37:12.182Z,0
2022-08-17T14:38:11.442Z,0
2022-08-17T14:39:11.381Z,0
2022-08-17T14:40:11.907Z,0
2022-08-17T14:41:11.693Z,0
2022-08-17T14:42:12.361Z,0
2022-08-17T14:43:11.470Z,0
2022-08-17T14:44:11.790Z,0
2022-08-17T14:45:36.461Z,0
2022-08-17T14:46:11.034Z,0